Archival Weather

Norman Y Mineta San Jose Intl

San Jose, California (KSJC)

Report from: Wednesday, January 31, 2024 2:53 AM PST
Current time: Monday, June 24, 2024 4:00 AM PDT

Current weather – Weather history – Daily summaries
Weather forecast

Temperature15.0°C (59.0°F)
Dew point5.6°C (42.1°F)
Winds 7 kts (3.6 m/s, 8.1 mph) Southeast (130°)
Visibility10 mi. (16.1 km)
Clouds Sky clear
Altimeter29.86 in.Hg (1011 mB)
Relative humidity53 %
Density altitude213 ft. (65 m)
Sea-level pressure101.1 kPa (1011 mB, 29.85 in.Hg)
Remarks Fully automated report
System requires maintenance
Automated weather observing station with precipitation discriminator
Flight conditions Visual Meteorological Conditions
Raw dataKSJC 311053Z AUTO 13007KT 10SM CLR 15/06 A2986 RMK AO2 SLP109 T01500056 $
An error has occurred. This application may no longer respond until reloaded. Reload 🗙